createdAt,value
2023-05-18T00:00:35.381Z,95491.91
2023-05-18T00:03:19.171Z,95493.36
2023-05-18T00:05:49.445Z,95496.20
2023-05-18T00:08:17.412Z,95496.45
2023-05-18T00:10:45.654Z,95497.61
2023-05-18T00:13:13.661Z,95498.20
2023-05-18T00:15:41.794Z,95500.80
2023-05-18T00:18:10.930Z,95501.27
2023-05-18T00:20:39.597Z,95502.94
2023-05-18T00:23:10.657Z,95507.52
2023-05-18T00:25:38.764Z,95508.13
2023-05-18T00:28:06.738Z,95502.88
2023-05-18T00:30:34.868Z,95508.54
2023-05-18T00:33:03.172Z,95506.31
2023-05-18T00:35:31.668Z,95508.55
2023-05-18T00:37:59.841Z,95512.17
2023-05-18T00:40:29.352Z,95515.70
2023-05-18T00:42:57.507Z,95510.84
2023-05-18T00:45:26.759Z,95511.94
2023-05-18T00:47:54.933Z,95511.04
2023-05-18T00:50:23.275Z,95511.11
2023-05-18T00:52:52.545Z,95506.98
2023-05-18T00:55:20.795Z,95507.84
2023-05-18T00:57:49.169Z,95508.58
2023-05-18T01:00:17.547Z,95509.98
2023-05-18T01:02:46.360Z,95516.17
2023-05-18T01:05:14.606Z,95519.45
2023-05-18T01:07:43.553Z,95517.23
2023-05-18T01:10:16.818Z,95521.13
2023-05-18T01:12:51.359Z,95522.84
2023-05-18T01:15:23.748Z,95528.77
2023-05-18T01:17:54.816Z,95525.17
2023-05-18T01:20:29.233Z,95524.20
2023-05-18T01:23:22.567Z,95527.16
2023-05-18T01:26:13.243Z,95529.31
2023-05-18T01:28:46.192Z,95540.23
2023-05-18T01:31:16.685Z,95538.10
2023-05-18T01:33:45.162Z,95534.10
2023-05-18T01:36:13.452Z,95537.45
2023-05-18T01:38:44.343Z,95539.61
2023-05-18T01:41:26.416Z,95541.45
2023-05-18T01:44:33.150Z,95539.71
2023-05-18T01:47:14.751Z,95539.39
2023-05-18T01:49:48.556Z,95541.14
2023-05-18T01:52:23.240Z,95546.48
2023-05-18T01:54:56.551Z,95543.84
2023-05-18T01:57:27.375Z,95543.48
2023-05-18T01:59:56.891Z,95541.73
2023-05-18T02:02:26.557Z,95543.46
2023-05-18T02:04:55.022Z,95548.70
2023-05-18T02:07:23.123Z,95548.45
2023-05-18T02:09:51.388Z,95553.83
2023-05-18T02:12:19.384Z,95559.80
2023-05-18T02:14:47.423Z,95566.31
2023-05-18T02:17:15.770Z,95563.48
2023-05-18T02:19:46.179Z,95567.80
2023-05-18T02:22:14.396Z,95572.41
2023-05-18T02:24:42.812Z,95570.67
2023-05-18T02:27:10.863Z,95572.77
2023-05-18T02:29:38.864Z,95569.26
2023-05-18T02:32:07.754Z,95571.23
2023-05-18T02:34:38.323Z,95578.36
2023-05-18T02:37:06.566Z,95577.61
2023-05-18T02:39:34.614Z,95580.61
2023-05-18T02:42:03.044Z,95576.84
2023-05-18T02:44:31.296Z,95583.67
2023-05-18T02:46:59.583Z,95583.85
2023-05-18T02:49:28.517Z,95586.06
2023-05-18T02:51:56.537Z,95580.84
2023-05-18T02:54:24.913Z,95584.16
2023-05-18T02:56:56.979Z,95590.54
2023-05-18T02:59:40.412Z,95588.70
2023-05-18T03:02:08.465Z,95590.16
2023-05-18T03:04:38.020Z,95595.88
2023-05-18T03:07:08.142Z,95604.08
2023-05-18T03:09:37.274Z,95606.59
2023-05-18T03:12:06.738Z,95609.35
2023-05-18T03:14:35.936Z,95608.96
2023-05-18T03:17:06.268Z,95610.54
2023-05-18T03:19:35.380Z,95611.62
2023-05-18T03:22:04.963Z,95612.15
2023-05-18T03:24:40.673Z,95619.08
2023-05-18T03:27:13.367Z,95625.23
2023-05-18T03:29:44.612Z,95620.57
2023-05-18T03:32:14.073Z,95623.63
2023-05-18T03:34:44.767Z,95627.27
2023-05-18T03:37:14.420Z,95629.09
2023-05-18T03:39:43.016Z,95630.41
2023-05-18T03:42:11.283Z,95631.03
2023-05-18T03:44:39.415Z,95632.50
2023-05-18T03:47:07.933Z,95637.31
2023-05-18T03:49:36.258Z,95641.56
2023-05-18T03:52:05.702Z,95643.05
2023-05-18T03:54:34.052Z,95644.69
2023-05-18T03:57:02.292Z,95648.02
2023-05-18T03:59:31.418Z,95647.83
2023-05-18T04:02:00.371Z,95646.84
2023-05-18T04:04:28.519Z,95645.30
2023-05-18T04:06:56.735Z,95639.95
2023-05-18T04:09:25.525Z,95641.36
2023-05-18T04:11:53.797Z,95645.01
2023-05-18T04:14:24.893Z,95649.45
2023-05-18T04:16:53.346Z,95652.90
2023-05-18T04:19:21.983Z,95662.99
2023-05-18T04:21:50.177Z,95663.52
2023-05-18T04:24:19.544Z,95671.48
2023-05-18T04:26:48.716Z,95673.23
2023-05-18T04:29:18.301Z,95681.17
2023-05-18T04:31:49.502Z,95683.85
2023-05-18T04:34:20.161Z,95683.80
2023-05-18T04:36:48.559Z,95689.76
2023-05-18T04:39:18.477Z,95686.08
2023-05-18T04:41:46.954Z,95691.11
2023-05-18T04:44:18.349Z,95690.74
2023-05-18T04:46:47.540Z,95694.09
2023-05-18T04:49:16.117Z,95698.83
2023-05-18T04:51:44.341Z,95697.77
2023-05-18T04:54:13.359Z,95702.52
2023-05-18T04:56:42.039Z,95704.17
2023-05-18T04:59:11.020Z,95708.08
2023-05-18T05:01:39.727Z,95706.88
2023-05-18T05:04:07.889Z,95710.15
2023-05-18T05:06:36.312Z,95716.30
2023-05-18T05:09:04.827Z,95716.45
2023-05-18T05:11:33.122Z,95719.42
2023-05-18T05:14:03.073Z,95719.11
2023-05-18T05:16:31.542Z,95713.87
2023-05-18T05:18:59.665Z,95720.02
2023-05-18T05:21:28.669Z,95726.36
2023-05-18T05:23:57.174Z,95725.23
2023-05-18T05:26:27.105Z,95728.79
2023-05-18T05:28:55.234Z,95732.16
2023-05-18T05:31:23.494Z,95733.03
2023-05-18T05:33:53.136Z,95737.70
2023-05-18T05:36:21.557Z,95743.00
2023-05-18T05:38:49.670Z,95741.69
2023-05-18T05:41:17.762Z,95748.30
2023-05-18T05:43:46.243Z,95745.87
2023-05-18T05:46:14.587Z,95741.93
2023-05-18T05:48:42.980Z,95741.55
2023-05-18T05:51:12.199Z,95740.34
2023-05-18T05:53:41.364Z,95746.39
2023-05-18T05:56:09.960Z,95749.20
2023-05-18T05:58:42.377Z,95750.48
2023-05-18T06:01:10.709Z,95750.88
2023-05-18T06:03:39.167Z,95750.33
2023-05-18T06:06:11.556Z,95749.73
2023-05-18T06:08:39.618Z,95747.09
2023-05-18T06:11:10.670Z,95751.25
2023-05-18T06:13:40.913Z,95762.80
2023-05-18T06:16:08.968Z,95765.05
2023-05-18T06:18:37.195Z,95767.64
2023-05-18T06:21:06.687Z,95763.86
2023-05-18T06:23:34.712Z,95769.30
2023-05-18T06:26:03.221Z,95770.65
2023-05-18T06:28:33.881Z,95775.29
2023-05-18T06:31:11.254Z,95770.68
2023-05-18T06:33:52.132Z,95770.70
2023-05-18T06:36:20.461Z,95771.45
2023-05-18T06:44:50.643Z,95780.39
2023-05-18T06:47:20.673Z,95782.34
2023-05-18T06:49:49.070Z,95782.61
2023-05-18T06:52:17.472Z,95785.20
2023-05-18T06:54:46.815Z,95790.26
2023-05-18T06:57:16.110Z,95792.41
2023-05-18T06:59:44.301Z,95793.77
2023-05-18T07:02:12.330Z,95797.41
2023-05-18T07:04:41.525Z,95795.17
2023-05-18T07:07:09.720Z,95795.91
2023-05-18T07:09:37.733Z,95796.52
2023-05-18T07:12:06.336Z,95798.89
2023-05-18T07:14:34.366Z,95802.21
2023-05-18T07:17:02.396Z,95794.08
2023-05-18T07:19:30.527Z,95792.24
2023-05-18T07:21:59.512Z,95797.50
2023-05-18T07:24:27.764Z,95804.09
2023-05-18T07:26:56.798Z,95802.52
2023-05-18T07:29:25.986Z,95808.15
2023-05-18T07:31:54.150Z,95812.91
2023-05-18T07:34:23.832Z,95817.06
2023-05-18T07:36:51.894Z,95816.77
2023-05-18T07:39:20.053Z,95819.09
2023-05-18T07:41:50.543Z,95822.35
2023-05-18T07:44:20.736Z,95822.66
2023-05-18T07:46:48.999Z,95823.38
2023-05-18T07:49:17.483Z,95825.72
2023-05-18T07:51:45.467Z,95826.77
2023-05-18T07:54:14.879Z,95827.82
2023-05-18T07:56:44.476Z,95835.09
2023-05-18T07:59:12.460Z,95837.77
2023-05-18T08:01:40.820Z,95840.64
2023-05-18T08:04:09.043Z,95841.83
2023-05-18T08:06:38.062Z,95844.16
2023-05-18T08:09:07.064Z,95848.84
2023-05-18T08:11:36.765Z,95847.87
2023-05-18T08:14:05.659Z,95851.48
2023-05-18T08:16:37.365Z,95852.30
2023-05-18T08:19:05.723Z,95853.23
2023-05-18T08:21:34.604Z,95852.34
2023-05-18T08:24:03.881Z,95853.10
2023-05-18T08:26:31.876Z,95850.95
2023-05-18T08:29:00.159Z,95851.39
2023-05-18T08:31:28.304Z,95852.03
2023-05-18T08:33:56.552Z,95852.59
2023-05-18T08:36:24.766Z,95857.47
2023-05-18T08:38:53.764Z,95859.87
2023-05-18T08:41:37.822Z,95866.83
2023-05-18T08:44:17.426Z,95865.76
2023-05-18T08:46:51.184Z,95870.27
2023-05-18T08:49:21.693Z,95874.79
2023-05-18T08:51:56.888Z,95875.64
2023-05-18T08:54:25.184Z,95884.05
2023-05-18T08:56:54.041Z,95881.80
2023-05-18T08:59:28.002Z,95880.41
2023-05-18T09:01:57.054Z,95885.12
2023-05-18T09:04:27.292Z,95882.95
2023-05-18T09:06:56.638Z,95877.95
2023-05-18T09:09:25.725Z,95867.98
2023-05-18T09:11:56.010Z,95860.87
2023-05-18T09:14:26.073Z,95854.06
2023-05-18T09:16:54.667Z,95849.73
2023-05-18T09:19:24.900Z,95845.37
2023-05-18T09:21:53.386Z,95845.02
2023-05-18T09:24:24.349Z,95839.88
2023-05-18T09:26:53.874Z,95835.83
2023-05-18T09:29:24.328Z,95834.30
2023-05-18T09:31:54.308Z,95836.11
2023-05-18T09:34:22.797Z,95840.11
2023-05-18T09:36:57.074Z,95842.53
2023-05-18T09:39:25.209Z,95844.09
2023-05-18T09:41:59.314Z,95843.39
2023-05-18T09:44:37.389Z,95842.19
2023-05-18T09:47:10.689Z,95843.51
2023-05-18T09:49:40.571Z,95844.51
2023-05-18T09:52:09.385Z,95847.24
2023-05-18T09:54:38.084Z,95848.61
2023-05-18T09:57:10.474Z,95851.73
2023-05-18T09:59:39.409Z,95853.89
2023-05-18T10:02:09.930Z,95854.80
2023-05-18T10:04:43.320Z,95852.15
2023-05-18T10:07:13.150Z,95853.54
2023-05-18T10:09:42.113Z,95852.48
2023-05-18T10:12:12.208Z,95850.39
2023-05-18T10:14:42.113Z,95854.70
2023-05-18T10:17:16.682Z,95854.45
2023-05-18T10:19:47.088Z,95855.45
2023-05-18T10:22:17.605Z,95863.23
2023-05-18T10:24:50.248Z,95868.31
2023-05-18T10:27:25.631Z,95865.95
2023-05-18T10:29:57.995Z,95861.48
2023-05-18T10:32:29.651Z,95858.77
2023-05-18T10:34:57.679Z,95853.69
2023-05-18T10:37:30.835Z,95853.07
2023-05-18T10:40:00.693Z,95851.05
2023-05-18T10:42:31.362Z,95853.80
2023-05-18T10:45:01.723Z,95855.51
2023-05-18T10:47:32.191Z,95859.91
2023-05-18T10:50:01.714Z,95858.23
2023-05-18T10:52:32.058Z,95860.16
2023-05-18T10:55:01.387Z,95854.60
2023-05-18T10:57:38.379Z,95850.96
2023-05-18T11:00:09.511Z,95848.85
2023-05-18T11:02:43.198Z,95847.25
2023-05-18T11:05:12.439Z,95851.91
2023-05-18T11:07:45.010Z,95848.48
2023-05-18T11:10:14.415Z,95849.70
2023-05-18T11:12:43.127Z,95839.34
2023-05-18T11:15:11.760Z,95840.77
2023-05-18T11:17:40.755Z,95843.45
2023-05-18T11:20:09.453Z,95837.54
2023-05-18T11:22:46.967Z,95834.63
2023-05-18T11:25:27.233Z,95835.13
2023-05-18T11:28:04.781Z,95836.13
2023-05-18T11:30:36.800Z,95840.41
2023-05-18T11:33:11.451Z,95836.56
2023-05-18T11:35:54.964Z,95833.65
2023-05-18T11:38:28.030Z,95835.59
2023-05-18T11:41:00.902Z,95839.52
2023-05-18T11:43:30.093Z,95843.89
2023-05-18T11:45:59.621Z,95839.96
2023-05-18T11:48:30.323Z,95839.83
2023-05-18T11:50:58.810Z,95841.65
2023-05-18T11:53:27.505Z,95849.05
2023-05-18T11:55:56.732Z,95847.47
2023-05-18T11:58:26.271Z,95853.23
2023-05-18T12:00:56.019Z,95852.14
2023-05-18T12:03:26.656Z,95847.66
2023-05-18T12:06:00.345Z,95839.44
2023-05-18T12:08:29.846Z,95842.04
2023-05-18T12:10:58.374Z,95844.85
2023-05-18T12:13:28.038Z,95845.07
2023-05-18T12:15:58.880Z,95843.61
2023-05-18T12:18:29.783Z,95844.73
2023-05-18T12:20:57.985Z,95843.23
2023-05-18T12:23:37.268Z,95841.48
2023-05-18T12:26:05.638Z,95842.31
2023-05-18T12:28:33.653Z,95842.24
2023-05-18T12:31:07.418Z,95842.65
2023-05-18T12:33:35.910Z,95841.73
2023-05-18T12:36:09.898Z,95845.64
2023-05-18T12:38:38.054Z,95843.27
2023-05-18T12:41:06.876Z,95847.02
2023-05-18T12:43:36.124Z,95840.61
2023-05-18T12:46:04.877Z,95837.23
2023-05-18T12:48:37.950Z,95838.05
2023-05-18T12:51:07.029Z,95836.56
2023-05-18T12:53:43.034Z,95839.39
2023-05-18T12:56:12.813Z,95837.54
2023-05-18T12:58:41.688Z,95840.10
2023-05-18T13:01:11.264Z,95839.17
2023-05-18T13:03:40.898Z,95839.54
2023-05-18T13:06:09.890Z,95843.67
2023-05-18T13:08:37.972Z,95832.88
2023-05-18T13:11:14.207Z,95839.42
2023-05-18T13:14:04.538Z,95838.13
2023-05-18T13:16:39.553Z,95838.21
2023-05-18T13:19:10.408Z,95840.12
2023-05-18T13:21:39.198Z,95844.69
2023-05-18T13:24:08.004Z,95844.21
2023-05-18T13:26:36.237Z,95842.28
2023-05-18T13:29:05.230Z,95838.11
2023-05-18T13:31:33.412Z,95834.19
2023-05-18T13:34:01.692Z,95835.75
2023-05-18T13:36:29.966Z,95835.95
2023-05-18T13:38:58.316Z,95837.65
2023-05-18T13:41:26.797Z,95836.13
2023-05-18T13:43:54.960Z,95842.27
2023-05-18T13:46:23.302Z,95837.56
2023-05-18T13:48:51.514Z,95836.92
2023-05-18T13:51:19.641Z,95833.86
2023-05-18T13:53:47.965Z,95833.46
2023-05-18T13:56:16.365Z,95834.77
2023-05-18T13:58:44.858Z,95833.45
2023-05-18T14:01:14.298Z,95830.95
2023-05-18T14:03:42.840Z,95834.63
2023-05-18T14:06:11.402Z,95828.02
2023-05-18T14:08:39.581Z,95831.05
2023-05-18T14:11:07.853Z,95829.80
2023-05-18T14:13:35.821Z,95830.39
2023-05-18T14:16:04.125Z,95831.04
2023-05-18T14:18:32.356Z,95828.27
2023-05-18T14:21:03.654Z,95825.73
2023-05-18T14:23:32.022Z,95828.42
2023-05-18T14:26:00.238Z,95829.84
2023-05-18T14:28:29.865Z,95828.16
2023-05-18T14:30:58.090Z,95831.34
2023-05-18T14:33:26.548Z,95829.61
2023-05-18T14:35:56.156Z,95831.24
2023-05-18T14:38:27.087Z,95833.67
2023-05-18T14:40:55.282Z,95836.95
2023-05-18T14:43:23.252Z,95830.30
2023-05-18T14:46:04.205Z,95830.20
2023-05-18T14:48:36.862Z,95829.15
2023-05-18T14:51:05.242Z,95828.65
2023-05-18T14:53:33.730Z,95828.66
2023-05-18T14:56:06.234Z,95832.36
2023-05-18T14:58:34.488Z,95838.10
2023-05-18T15:01:02.915Z,95841.42
2023-05-18T15:03:31.359Z,95838.14
2023-05-18T15:06:00.038Z,95836.49
2023-05-18T15:08:28.300Z,95837.04
2023-05-18T15:10:56.311Z,95845.98
2023-05-18T15:13:24.431Z,95848.15
2023-05-18T15:15:52.451Z,95848.84
2023-05-18T15:18:20.734Z,95850.08
2023-05-18T15:20:48.828Z,95849.69
2023-05-18T15:23:17.119Z,95848.97
2023-05-18T15:25:45.560Z,95852.67
2023-05-18T15:28:13.872Z,95854.41
2023-05-18T15:30:42.364Z,95857.48
2023-05-18T15:33:10.561Z,95855.86
2023-05-18T15:35:39.474Z,95859.84
2023-05-18T15:38:07.742Z,95861.02
2023-05-18T15:40:36.639Z,95865.44
2023-05-18T15:43:04.685Z,95870.15
2023-05-18T15:45:32.824Z,95870.58
2023-05-18T15:48:01.086Z,95872.21
2023-05-18T15:50:29.527Z,95871.95
2023-05-18T15:52:57.788Z,95873.78
2023-05-18T15:55:25.765Z,95876.65
2023-05-18T15:57:53.959Z,95873.58
2023-05-18T16:00:23.859Z,95871.26
2023-05-18T16:02:52.063Z,95878.48
2023-05-18T16:05:20.147Z,95882.91
2023-05-18T16:07:48.453Z,95885.09
2023-05-18T16:10:16.693Z,95881.41
2023-05-18T16:12:44.744Z,95879.72
2023-05-18T16:15:12.980Z,95878.14
2023-05-18T16:17:41.059Z,95877.45
2023-05-18T16:20:09.879Z,95877.89
2023-05-18T16:22:38.327Z,95881.52
2023-05-18T16:25:07.028Z,95883.07
2023-05-18T16:27:35.001Z,95882.29
2023-05-18T16:30:03.382Z,95880.77
2023-05-18T16:32:31.853Z,95879.42
2023-05-18T16:35:00.310Z,95881.65
2023-05-18T16:37:28.492Z,95887.36
2023-05-18T16:39:56.628Z,95887.66
2023-05-18T16:42:25.956Z,95892.73
2023-05-18T16:44:54.571Z,95889.48
2023-05-18T16:47:23.228Z,95889.56
2023-05-18T16:49:51.300Z,95888.41
2023-05-18T16:52:19.468Z,95889.94
2023-05-18T16:54:47.586Z,95897.59
2023-05-18T16:57:15.931Z,95907.15
2023-05-18T16:59:43.953Z,95910.02
2023-05-18T17:02:15.766Z,95904.90
2023-05-18T17:04:49.836Z,95904.58
2023-05-18T17:07:18.951Z,95901.70
2023-05-18T17:09:47.222Z,95898.95
2023-05-18T17:12:15.245Z,95903.73
2023-05-18T17:14:43.216Z,95906.45
2023-05-18T17:17:11.642Z,95912.61
2023-05-18T17:19:40.379Z,95914.34
2023-05-18T17:22:11.397Z,95912.64
2023-05-18T17:24:39.423Z,95917.27
2023-05-18T17:27:07.454Z,95917.80
2023-05-18T17:29:35.631Z,95923.48
2023-05-18T17:32:04.237Z,95926.49
2023-05-18T17:34:32.442Z,95924.94
2023-05-18T17:37:00.474Z,95929.50
2023-05-18T17:39:28.633Z,95934.52
2023-05-18T17:41:57.780Z,95935.01
2023-05-18T17:44:26.789Z,95931.77
2023-05-18T17:46:54.916Z,95936.21
2023-05-18T17:49:22.958Z,95939.04
2023-05-18T17:51:52.392Z,95944.16
2023-05-18T17:54:20.616Z,95947.40
2023-05-18T17:56:48.722Z,95944.67
2023-05-18T17:59:17.302Z,95953.13
2023-05-18T18:01:45.713Z,95953.92
2023-05-18T18:04:13.928Z,95959.98
2023-05-18T18:06:43.609Z,95963.98
2023-05-18T18:09:11.828Z,95962.73
2023-05-18T18:11:40.200Z,95962.60
2023-05-18T18:14:08.369Z,95971.02
2023-05-18T18:16:36.494Z,95974.46
2023-05-18T18:19:05.318Z,95975.98
2023-05-18T18:21:33.586Z,95973.95
2023-05-18T18:24:02.829Z,95978.36
2023-05-18T18:26:32.310Z,95981.58
2023-05-18T18:29:00.675Z,95983.96
2023-05-18T18:31:28.860Z,95980.36
2023-05-18T18:33:56.976Z,95983.98
2023-05-18T18:36:26.401Z,95987.48
2023-05-18T18:38:54.797Z,95993.23
2023-05-18T18:41:22.961Z,95997.93
2023-05-18T18:43:54.158Z,96001.36
2023-05-18T18:46:22.476Z,96001.36
2023-05-18T18:48:50.672Z,96003.17
2023-05-18T18:51:19.092Z,96008.66
2023-05-18T18:53:47.274Z,96006.36
2023-05-18T18:56:15.718Z,96005.35
2023-05-18T18:58:43.875Z,96012.32
2023-05-18T19:01:12.474Z,96018.75
2023-05-18T19:03:40.723Z,96019.74
2023-05-18T19:06:08.996Z,96022.29
2023-05-18T19:08:37.308Z,96016.30
2023-05-18T19:11:05.356Z,96025.08
2023-05-18T19:13:33.333Z,96026.45
2023-05-18T19:16:02.033Z,96032.19
2023-05-18T19:18:30.233Z,96030.69
2023-05-18T19:21:01.348Z,96034.17
2023-05-18T19:23:29.690Z,96034.48
2023-05-18T19:25:59.593Z,96036.43
2023-05-18T19:28:27.993Z,96043.87
2023-05-18T19:30:55.999Z,96043.57
2023-05-18T19:33:24.230Z,96038.33
2023-05-18T19:35:54.564Z,96036.05
2023-05-18T19:38:22.628Z,96033.35
2023-05-18T19:40:51.211Z,96035.52
2023-05-18T19:43:19.380Z,96035.34
2023-05-18T19:45:49.919Z,96039.60
2023-05-18T19:48:18.132Z,96049.15
2023-05-18T19:50:46.459Z,96051.40
2023-05-18T19:53:14.593Z,96052.32
2023-05-18T19:55:42.985Z,96053.52
2023-05-18T19:58:11.045Z,96052.52
2023-05-18T20:00:41.611Z,96059.86
2023-05-18T20:03:10.579Z,96062.95
2023-05-18T20:05:38.808Z,96057.61
2023-05-18T20:08:08.521Z,96058.96
2023-05-18T20:10:36.512Z,96060.29
2023-05-18T20:13:04.846Z,96053.99
2023-05-18T20:15:36.831Z,96055.40
2023-05-18T20:18:06.979Z,96056.30
2023-05-18T20:20:36.159Z,96062.07
2023-05-18T20:23:06.988Z,96061.85
2023-05-18T20:25:35.499Z,96061.11
2023-05-18T20:28:07.962Z,96062.67
2023-05-18T20:30:36.532Z,96060.09
2023-05-18T20:33:05.507Z,96057.63
2023-05-18T20:35:34.037Z,96054.97
2023-05-18T20:38:04.449Z,96056.55
2023-05-18T20:40:32.610Z,96056.77
2023-05-18T20:43:01.195Z,96055.27
2023-05-18T20:45:29.870Z,96061.55
2023-05-18T20:48:00.217Z,96062.50
2023-05-18T20:50:28.814Z,96067.36
2023-05-18T20:52:56.981Z,96068.85
2023-05-18T20:55:25.048Z,96070.20
2023-05-18T20:57:53.265Z,96069.11
2023-05-18T21:00:21.780Z,96068.08
2023-05-18T21:02:49.999Z,96069.86
2023-05-18T21:05:18.980Z,96073.06
2023-05-18T21:07:48.875Z,96075.75
2023-05-18T21:10:17.192Z,96072.65
2023-05-18T21:12:45.335Z,96068.84
2023-05-18T21:15:13.563Z,96073.44
2023-05-18T21:17:41.677Z,96075.39
2023-05-18T21:20:10.636Z,96079.98
2023-05-18T21:22:38.774Z,96079.55
2023-05-18T21:25:07.349Z,96079.58
2023-05-18T21:27:37.205Z,96081.73
2023-05-18T21:30:06.067Z,96079.61
2023-05-18T21:32:34.332Z,96076.13
2023-05-18T21:35:02.570Z,96075.98
2023-05-18T21:37:31.056Z,96077.06
2023-05-18T21:39:59.261Z,96075.26
2023-05-18T21:42:27.347Z,96077.48
2023-05-18T21:44:55.273Z,96078.37
2023-05-18T21:47:23.686Z,96087.34
2023-05-18T21:49:52.275Z,96092.94
2023-05-18T21:52:20.560Z,96090.10
2023-05-18T21:54:48.703Z,96081.58
2023-05-18T21:57:16.723Z,96073.27
2023-05-18T21:59:44.766Z,96075.94
2023-05-18T22:02:12.833Z,96078.48
2023-05-18T22:04:41.236Z,96084.64
2023-05-18T22:07:09.511Z,96088.86
2023-05-18T22:09:37.665Z,96088.55
2023-05-18T22:12:06.597Z,96088.23
2023-05-18T22:14:34.568Z,96086.30
2023-05-18T22:17:03.150Z,96088.95
2023-05-18T22:19:31.319Z,96087.37
2023-05-18T22:22:01.514Z,96083.88
2023-05-18T22:24:30.002Z,96087.92
2023-05-18T22:26:57.963Z,96089.20
2023-05-18T22:29:26.303Z,96084.98
2023-05-18T22:31:54.340Z,96085.70
2023-05-18T22:34:22.359Z,96089.27
2023-05-18T22:36:50.347Z,96089.80
2023-05-18T22:39:18.750Z,96088.75
2023-05-18T22:41:46.848Z,96085.06
2023-05-18T22:44:14.828Z,96080.31
2023-05-18T22:46:43.525Z,96079.63
2023-05-18T22:49:12.181Z,96079.01
2023-05-18T22:51:41.037Z,96081.86
2023-05-18T22:54:09.194Z,96084.34
2023-05-18T22:56:37.237Z,96080.83
2023-05-18T22:59:07.305Z,96080.48
2023-05-18T23:01:37.932Z,96085.45
2023-05-18T23:04:06.615Z,96080.90
2023-05-18T23:06:34.844Z,96086.19
2023-05-18T23:09:02.928Z,96081.10
2023-05-18T23:11:31.325Z,96080.52
2023-05-18T23:14:02.889Z,96078.77
2023-05-18T23:16:31.203Z,96079.15
2023-05-18T23:19:01.806Z,96080.73
2023-05-18T23:21:31.560Z,96076.14
2023-05-18T23:23:59.873Z,96074.71
2023-05-18T23:26:28.318Z,96068.31
2023-05-18T23:28:56.648Z,96066.50
2023-05-18T23:31:24.768Z,96062.48
2023-05-18T23:33:53.482Z,96066.73
2023-05-18T23:36:22.153Z,96065.91
2023-05-18T23:38:51.781Z,96063.27
2023-05-18T23:41:19.924Z,96066.42
2023-05-18T23:43:48.390Z,96068.88
2023-05-18T23:46:17.168Z,96069.94
2023-05-18T23:48:46.162Z,96072.73
2023-05-18T23:51:21.794Z,96072.34
2023-05-18T23:53:51.979Z,96071.95
2023-05-18T23:56:21.838Z,96069.10
2023-05-18T23:58:50.361Z,96064.31
